Time;durP1;ratioP1;P1;durP2;ratioP2;P2;SDS_P1;SDS_P2;PMS_P1;PMS_P2;Temp;Humidity;BMP_temperature;BMP_pressure;BME280_temperature;BME280_humidity;BME280_pressure;Samples;Min_cycle;Max_cycle;Signal;HPM_P1;HPM_P2
2023/09/13 00:00:01;;;;;;;25.17;23.17;;;19.00;99.90;;;;;;4747026;30;20595;-56
2023/09/13 00:02:27;;;;;;;23.97;22.17;;;19.00;99.90;;;;;;4743011;30;20208;-57
2023/09/13 00:04:54;;;;;;;25.20;23.20;;;19.00;99.90;;;;;;4746620;30;20196;-56
2023/09/13 00:07:20;;;;;;;25.00;23.00;;;18.90;99.90;;;;;;4744739;30;20594;-51
2023/09/13 00:09:45;;;;;;;25.30;23.10;;;18.90;99.90;;;;;;4744627;30;20435;-56
2023/09/13 00:12:12;;;;;;;23.73;21.90;;;18.90;99.90;;;;;;4744861;30;20248;-57
2023/09/13 00:14:38;;;;;;;25.40;23.50;;;18.90;99.90;;;;;;4746953;30;20682;-57
2023/09/13 00:17:04;;;;;;;25.33;23.30;;;18.90;99.90;;;;;;4744420;30;20486;-57
2023/09/13 00:19:30;;;;;;;25.87;23.67;;;18.90;99.90;;;;;;4744643;30;20276;-59
2023/09/13 00:21:56;;;;;;;25.07;22.50;;;18.80;99.90;;;;;;4745000;30;20286;-56
2023/09/13 00:24:22;;;;;;;24.73;22.70;;;18.80;99.90;;;;;;4738888;30;20521;-56
2023/09/13 00:26:47;;;;;;;25.50;23.30;;;18.80;99.90;;;;;;4745481;30;21011;-56
2023/09/13 00:29:14;;;;;;;23.53;21.83;;;18.80;99.90;;;;;;4734495;30;20285;-57
2023/09/13 00:31:40;;;;;;;25.07;23.17;;;18.80;99.90;;;;;;4746359;30;20194;-57
2023/09/13 00:34:07;;;;;;;24.47;22.47;;;18.80;99.90;;;;;;4746889;30;20845;-57
2023/09/13 00:36:33;;;;;;;24.57;22.47;;;18.80;99.90;;;;;;4745080;30;20438;-58
2023/09/13 00:38:58;;;;;;;24.60;22.70;;;18.80;99.90;;;;;;4742634;30;20905;-57
2023/09/13 00:41:24;;;;;;;26.03;23.87;;;18.80;99.90;;;;;;4743796;30;20624;-54
2023/09/13 00:43:50;;;;;;;25.43;23.33;;;18.80;99.90;;;;;;4746185;30;20300;-58
2023/09/13 00:46:16;;;;;;;24.90;22.90;;;18.70;99.90;;;;;;4747841;30;20208;-54
2023/09/13 00:48:42;;;;;;;26.60;24.40;;;18.70;99.90;;;;;;4746349;30;20819;-54
2023/09/13 00:51:09;;;;;;;24.83;22.87;;;18.70;99.90;;;;;;4750863;30;20558;-51
2023/09/13 00:53:35;;;;;;;25.43;23.53;;;18.70;99.90;;;;;;4747939;30;20538;-56
2023/09/13 00:56:02;;;;;;;24.83;22.73;;;18.70;99.90;;;;;;4753149;30;20438;-56
2023/09/13 00:58:28;;;;;;;25.43;23.30;;;18.80;99.90;;;;;;4746128;30;20475;-58
2023/09/13 01:00:54;;;;;;;25.57;23.40;;;18.80;99.90;;;;;;4739265;30;20439;-55
2023/09/13 01:03:23;;;;;;;25.33;23.13;;;18.70;99.90;;;;;;4744398;30;20603;-50
2023/09/13 01:05:54;;;;;;;24.60;22.77;;;18.80;99.90;;;;;;4743647;30;20675;-54
2023/09/13 01:08:20;;;;;;;25.17;22.97;;;18.80;99.90;;;;;;4745624;30;20479;-57
2023/09/13 01:10:47;;;;;;;25.03;23.00;;;18.80;99.90;;;;;;4743068;30;20461;-54
2023/09/13 01:13:12;;;;;;;24.87;22.87;;;18.90;99.90;;;;;;4750503;30;20478;-56
2023/09/13 01:15:56;;;;;;;25.20;23.10;;;18.90;99.90;;;;;;4744258;30;20442;-53
2023/09/13 01:18:32;;;;;;;23.70;22.10;;;18.90;99.90;;;;;;4762576;30;20261;-57
2023/09/13 01:21:17;;;;;;;25.17;23.17;;;19.10;99.90;;;;;;4744432;30;20449;-49
2023/09/13 01:24:18;;;;;;;26.87;24.77;;;19.30;99.90;;;;;;4745270;30;20443;-57
2023/09/13 01:27:11;;;;;;;24.87;22.80;;;19.30;99.90;;;;;;4746440;30;20463;-56
2023/09/13 01:29:38;;;;;;;24.73;22.80;;;19.30;99.90;;;;;;4742790;30;20454;-59
2023/09/13 01:32:04;;;;;;;24.70;22.80;;;19.30;99.90;;;;;;4744346;30;20675;-59
2023/09/13 01:34:30;;;;;;;23.90;22.00;;;19.30;99.90;;;;;;4749853;30;20562;-58
2023/09/13 01:36:56;;;;;;;25.13;23.23;;;19.30;99.90;;;;;;4743847;30;20435;-58
2023/09/13 01:39:22;;;;;;;26.10;24.00;;;19.30;99.90;;;;;;4741468;30;20209;-59
2023/09/13 01:41:56;;;;;;;24.43;22.47;;;19.30;99.90;;;;;;4749460;30;20450;-54
2023/09/13 01:44:23;;;;;;;24.63;22.83;;;19.30;99.90;;;;;;4738655;30;20596;-58
2023/09/13 01:46:50;;;;;;;25.23;22.83;;;19.40;99.90;;;;;;4741549;30;20498;-57
2023/09/13 01:49:18;;;;;;;24.63;22.70;;;19.30;99.90;;;;;;4760789;30;20463;-55
2023/09/13 01:51:45;;;;;;;24.33;22.53;;;19.30;99.90;;;;;;4744835;30;20972;-58
2023/09/13 01:54:10;;;;;;;25.43;23.33;;;19.30;99.90;;;;;;4749436;30;20801;-58
2023/09/13 01:56:36;;;;;;;23.73;21.93;;;19.30;99.90;;;;;;4745880;30;20504;-59
2023/09/13 01:59:02;;;;;;;24.13;22.13;;;19.30;99.90;;;;;;4740329;30;20193;-57
2023/09/13 02:01:27;;;;;;;24.83;22.83;;;19.30;99.90;;;;;;4747376;30;20212;-58
2023/09/13 02:03:53;;;;;;;24.27;22.37;;;19.30;99.90;;;;;;4744923;30;20652;-58
2023/09/13 02:06:18;;;;;;;25.10;23.03;;;19.40;99.90;;;;;;4746928;30;20212;-60
2023/09/13 02:08:45;;;;;;;23.90;21.90;;;19.40;99.90;;;;;;4745058;30;20192;-57
2023/09/13 02:11:11;;;;;;;24.00;21.90;;;19.40;99.90;;;;;;4737105;30;20235;-58
2023/09/13 02:13:37;;;;;;;25.03;22.90;;;19.50;99.90;;;;;;4746912;30;20916;-60
2023/09/13 02:16:03;;;;;;;23.13;21.13;;;19.50;99.90;;;;;;4745065;30;20490;-58
2023/09/13 02:18:28;;;;;;;25.13;23.23;;;19.50;99.90;;;;;;4748804;30;20196;-56
2023/09/13 02:20:54;;;;;;;24.23;22.43;;;19.60;99.90;;;;;;4743595;30;20805;-58
2023/09/13 02:23:20;;;;;;;26.40;24.10;;;19.60;99.90;;;;;;4748279;30;20192;-56
2023/09/13 02:25:46;;;;;;;31.40;29.00;;;19.60;99.90;;;;;;4733587;30;20189;-56
2023/09/13 02:28:13;;;;;;;32.77;30.17;;;19.50;99.90;;;;;;4746816;30;20205;-55
2023/09/13 02:30:39;;;;;;;33.17;30.37;;;19.20;99.90;;;;;;4745625;30;20923;-52
2023/09/13 02:33:06;;;;;;;33.77;30.50;;;19.10;99.90;;;;;;4742786;30;20577;-58
2023/09/13 02:35:32;;;;;;;33.80;31.00;;;19.00;99.90;;;;;;4742846;30;20443;-56
2023/09/13 02:37:58;;;;;;;32.30;29.77;;;18.90;99.90;;;;;;4746451;30;20450;-56
2023/09/13 02:40:24;;;;;;;34.10;31.20;;;18.90;99.90;;;;;;4745396;30;20477;-56
2023/09/13 02:42:50;;;;;;;33.17;30.47;;;18.70;99.90;;;;;;4743315;30;20978;-56
2023/09/13 02:45:16;;;;;;;33.40;30.70;;;18.60;99.90;;;;;;4745330;30;20440;-56
2023/09/13 02:47:42;;;;;;;34.60;31.57;;;18.60;99.90;;;;;;4746208;30;20794;-55
2023/09/13 02:50:09;;;;;;;34.97;32.13;;;18.60;99.90;;;;;;4744881;30;20631;-53
2023/09/13 02:52:35;;;;;;;34.47;31.40;;;18.50;99.90;;;;;;4745879;30;21004;-55
2023/09/13 02:55:03;;;;;;;33.77;30.97;;;18.30;99.90;;;;;;4750804;30;20518;-57
2023/09/13 02:57:28;;;;;;;34.37;31.43;;;18.30;99.90;;;;;;4759247;30;20204;-55
2023/09/13 02:59:54;;;;;;;33.33;30.10;;;18.30;99.90;;;;;;4747178;30;20443;-55
2023/09/13 03:02:22;;;;;;;35.63;32.77;;;18.30;99.90;;;;;;4746151;30;20200;-49
2023/09/13 03:04:52;;;;;;;35.40;32.50;;;18.30;99.90;;;;;;4743837;30;20225;-50
2023/09/13 03:07:18;;;;;;;34.67;31.97;;;18.30;99.90;;;;;;4745325;30;20436;-58
2023/09/13 03:09:45;;;;;;;33.83;31.03;;;18.30;99.90;;;;;;4746848;30;20504;-57
2023/09/13 03:12:11;;;;;;;34.93;32.03;;;18.30;99.90;;;;;;4744875;30;20475;-51
2023/09/13 03:14:37;;;;;;;34.20;31.43;;;18.40;99.90;;;;;;4747829;30;20949;-57
2023/09/13 03:17:02;;;;;;;34.20;31.30;;;18.40;99.90;;;;;;4740614;30;20523;-56
2023/09/13 03:19:30;;;;;;;36.37;33.27;;;18.40;99.90;;;;;;4747688;30;20188;-55
2023/09/13 03:21:56;;;;;;;34.90;31.93;;;18.40;99.90;;;;;;4743094;30;20672;-56
2023/09/13 03:24:22;;;;;;;34.90;31.70;;;18.40;99.90;;;;;;4746570;30;21472;-51
2023/09/13 03:26:47;;;;;;;36.10;33.10;;;18.40;99.90;;;;;;4744728;30;20279;-58
2023/09/13 03:29:13;;;;;;;35.30;32.30;;;18.30;99.90;;;;;;4744820;30;20558;-57
2023/09/13 03:31:39;;;;;;;37.90;34.63;;;18.30;99.90;;;;;;4745467;30;20221;-52
2023/09/13 03:34:04;;;;;;;37.10;33.90;;;18.30;99.90;;;;;;4744243;30;20208;-58
2023/09/13 03:36:30;;;;;;;35.87;32.70;;;18.30;99.90;;;;;;4748181;30;20803;-49
2023/09/13 03:38:56;;;;;;;36.57;33.17;;;18.30;99.90;;;;;;4742961;30;20292;-56
2023/09/13 03:41:23;;;;;;;37.43;34.23;;;18.30;99.90;;;;;;4741516;30;20220;-57
2023/09/13 03:43:49;;;;;;;35.70;32.53;;;18.20;99.90;;;;;;4744052;30;20291;-61
2023/09/13 03:46:15;;;;;;;36.13;33.03;;;18.20;99.90;;;;;;4744090;30;20693;-56
2023/09/13 03:48:41;;;;;;;36.37;33.27;;;18.20;99.90;;;;;;4745284;30;20486;-54
2023/09/13 03:51:07;;;;;;;34.97;31.77;;;18.20;99.90;;;;;;4747870;30;20470;-57
2023/09/13 03:53:33;;;;;;;35.93;32.67;;;18.20;99.90;;;;;;4744653;30;20623;-54
2023/09/13 03:56:00;;;;;;;35.93;32.83;;;18.20;99.90;;;;;;4747896;30;20431;-56
2023/09/13 03:58:26;;;;;;;34.70;31.67;;;18.20;99.90;;;;;;4744780;30;20440;-56
2023/09/13 04:00:52;;;;;;;34.77;31.67;;;18.10;99.90;;;;;;4747633;30;20940;-52
2023/09/13 04:03:19;;;;;;;36.70;33.47;;;18.00;99.90;;;;;;4741678;30;20188;-55
2023/09/13 04:05:45;;;;;;;36.63;33.33;;;18.10;99.90;;;;;;4747149;30;20485;-55
2023/09/13 04:08:11;;;;;;;31.70;28.60;;;18.00;99.90;;;;;;4745779;30;20650;-46
2023/09/13 04:10:37;;;;;;;30.40;27.60;;;18.00;99.90;;;;;;4740648;30;20821;-51
2023/09/13 04:13:02;;;;;;;29.43;26.83;;;18.00;99.90;;;;;;4739535;30;20586;-57
2023/09/13 04:15:28;;;;;;;31.90;29.07;;;18.00;99.90;;;;;;4739258;30;20451;-55
2023/09/13 04:17:54;;;;;;;29.50;26.90;;;18.00;99.90;;;;;;4738658;30;20675;-57
2023/09/13 04:20:22;;;;;;;30.10;27.40;;;18.00;99.90;;;;;;4740431;30;20284;-55
2023/09/13 04:22:49;;;;;;;29.47;26.77;;;18.00;99.90;;;;;;4744120;30;20246;-57
2023/09/13 04:25:14;;;;;;;31.77;28.93;;;18.00;99.90;;;;;;4743444;30;20462;-54
2023/09/13 04:27:44;;;;;;;33.17;30.03;;;17.90;99.90;;;;;;4740981;30;20982;-56
2023/09/13 04:30:11;;;;;;;31.53;28.50;;;17.90;99.90;;;;;;4742190;30;20446;-56
2023/09/13 04:32:36;;;;;;;32.43;29.40;;;17.90;99.90;;;;;;4742781;30;20525;-54
2023/09/13 04:35:02;;;;;;;31.60;28.20;;;17.90;99.90;;;;;;4742480;30;21060;-56
2023/09/13 04:37:28;;;;;;;30.47;27.80;;;17.90;99.90;;;;;;4743172;30;20208;-55
2023/09/13 04:39:54;;;;;;;31.33;28.37;;;17.90;99.90;;;;;;4742941;30;20442;-54
2023/09/13 04:42:19;;;;;;;32.20;29.10;;;17.90;99.90;;;;;;4743498;30;21240;-56
2023/09/13 04:44:45;;;;;;;30.23;27.40;;;17.90;99.90;;;;;;4743484;30;21024;-54
2023/09/13 04:47:10;;;;;;;31.77;28.87;;;17.90;99.90;;;;;;4741952;30;20290;-53
2023/09/13 04:49:36;;;;;;;32.70;29.70;;;18.00;99.90;;;;;;4742493;30;20207;-49
2023/09/13 04:52:03;;;;;;;30.00;27.30;;;17.90;99.90;;;;;;4741902;30;20669;-49
2023/09/13 04:54:29;;;;;;;32.73;29.50;;;17.90;99.90;;;;;;4742073;30;20296;-55
2023/09/13 04:56:54;;;;;;;29.43;26.60;;;18.00;99.90;;;;;;4741826;30;20423;-54
2023/09/13 04:59:24;;;;;;;30.77;27.90;;;18.00;99.90;;;;;;4742190;30;20426;-52
2023/09/13 05:01:50;;;;;;;31.87;28.97;;;18.00;99.90;;;;;;4740485;30;20197;-55
2023/09/13 05:04:15;;;;;;;30.43;27.50;;;18.00;99.90;;;;;;4740564;30;21060;-58
2023/09/13 05:06:41;;;;;;;31.00;28.13;;;18.10;99.90;;;;;;4741667;30;20610;-58
2023/09/13 05:09:06;;;;;;;30.30;27.63;;;18.10;99.90;;;;;;4741780;30;20578;-55
2023/09/13 05:11:32;;;;;;;29.80;27.03;;;18.10;99.90;;;;;;4740896;30;20215;-57
2023/09/13 05:14:11;;;;;;;29.67;26.77;;;18.10;99.90;;;;;;4741699;30;20285;-56
2023/09/13 05:16:37;;;;;;;29.07;26.30;;;18.10;99.90;;;;;;4742129;30;20259;-54
2023/09/13 05:19:03;;;;;;;31.27;28.37;;;18.20;99.90;;;;;;4742042;30;20760;-54
2023/09/13 05:21:28;;;;;;;30.50;27.63;;;18.20;99.90;;;;;;4741302;30;20584;-58
2023/09/13 05:23:54;;;;;;;30.73;27.63;;;18.20;99.90;;;;;;4741602;30;20198;-57
2023/09/13 05:26:20;;;;;;;30.77;27.97;;;18.20;99.90;;;;;;4741705;30;20201;-56
2023/09/13 05:28:45;;;;;;;30.97;28.03;;;18.20;99.90;;;;;;4741634;30;20275;-56
2023/09/13 05:31:11;;;;;;;30.00;27.30;;;18.20;99.90;;;;;;4741493;30;20656;-55
2023/09/13 05:33:37;;;;;;;30.27;27.47;;;18.20;99.90;;;;;;4740502;30;20235;-54
2023/09/13 05:36:10;;;;;;;28.13;25.73;;;18.30;99.90;;;;;;4741234;30;20836;-56
2023/09/13 05:38:36;;;;;;;28.50;25.80;;;18.30;99.90;;;;;;4741959;30;20215;-54
2023/09/13 05:41:09;;;;;;;29.80;27.00;;;18.30;99.90;;;;;;4741234;30;20435;-55
2023/09/13 05:43:36;;;;;;;29.47;26.57;;;18.40;99.90;;;;;;4754816;30;20442;-50
2023/09/13 05:46:01;;;;;;;28.90;26.20;;;18.40;99.90;;;;;;4741740;30;20442;-51
2023/09/13 05:48:27;;;;;;;29.13;26.43;;;18.50;99.90;;;;;;4740816;30;20493;-55
2023/09/13 05:50:52;;;;;;;28.23;25.57;;;18.60;99.90;;;;;;4741676;30;20370;-57
2023/09/13 05:53:19;;;;;;;27.03;24.53;;;18.60;99.90;;;;;;4740437;30;20307;-55
2023/09/13 05:55:46;;;;;;;28.27;25.57;;;18.70;99.90;;;;;;4740154;30;20609;-55
2023/09/13 05:58:11;;;;;;;28.83;26.23;;;18.70;99.90;;;;;;4741105;30;20480;-51
2023/09/13 06:00:37;;;;;;;28.70;26.10;;;18.70;99.90;;;;;;4741038;30;20931;-55
2023/09/13 06:03:03;;;;;;;28.00;25.60;;;18.80;99.90;;;;;;4741118;30;20243;-52
2023/09/13 06:05:29;;;;;;;28.10;25.50;;;18.80;99.90;;;;;;4740669;30;20192;-56
2023/09/13 06:07:54;;;;;;;28.10;25.60;;;18.80;99.90;;;;;;4739779;30;21002;-57
2023/09/13 06:10:20;;;;;;;28.13;25.70;;;18.90;99.90;;;;;;4740482;30;20199;-52
2023/09/13 06:12:45;;;;;;;27.47;24.97;;;18.90;99.90;;;;;;4740399;30;20220;-56
2023/09/13 06:15:12;;;;;;;28.10;25.60;;;18.90;99.90;;;;;;4740695;30;20719;-54
2023/09/13 06:17:37;;;;;;;27.47;25.00;;;18.90;99.90;;;;;;4739854;30;20645;-56
2023/09/13 06:20:04;;;;;;;27.10;24.70;;;19.00;99.90;;;;;;4740492;30;20442;-55
2023/09/13 06:22:32;;;;;;;27.83;25.43;;;19.10;99.90;;;;;;4741058;30;20206;-58
2023/09/13 06:24:58;;;;;;;26.10;24.00;;;19.20;99.90;;;;;;4740810;30;20458;-56
2023/09/13 06:27:24;;;;;;;27.47;24.97;;;19.30;99.90;;;;;;4741681;30;20526;-56
2023/09/13 06:29:50;;;;;;;25.93;23.63;;;19.40;99.90;;;;;;4741950;30;20437;-54
2023/09/13 06:32:15;;;;;;;24.77;22.70;;;19.50;99.90;;;;;;4741387;30;20207;-56
2023/09/13 06:34:41;;;;;;;26.00;23.90;;;19.60;99.90;;;;;;4741612;30;20660;-56
2023/09/13 06:37:07;;;;;;;25.70;23.33;;;19.70;99.90;;;;;;4741611;30;20192;-55
2023/09/13 06:39:34;;;;;;;24.90;22.80;;;19.70;99.90;;;;;;4737816;30;20923;-53
2023/09/13 06:42:00;;;;;;;23.53;21.77;;;19.80;99.90;;;;;;4741452;30;20196;-55
2023/09/13 06:44:26;;;;;;;25.00;23.00;;;20.00;99.90;;;;;;4739852;30;20501;-54
2023/09/13 06:46:51;;;;;;;25.30;23.10;;;20.20;99.90;;;;;;4740499;30;20451;-53
2023/09/13 06:49:17;;;;;;;23.93;22.03;;;20.20;99.90;;;;;;4740268;30;21310;-54
2023/09/13 06:51:43;;;;;;;24.20;22.00;;;20.40;99.90;;;;;;4741057;30;20222;-56
2023/09/13 06:54:08;;;;;;;24.03;22.20;;;20.50;99.90;;;;;;4754745;30;20221;-52
2023/09/13 06:56:34;;;;;;;24.10;22.20;;;20.60;99.90;;;;;;4741124;30;20208;-55
2023/09/13 06:58:59;;;;;;;24.40;22.40;;;20.70;99.90;;;;;;4741282;30;20609;-53
2023/09/13 07:01:26;;;;;;;23.67;21.97;;;20.90;99.90;;;;;;4740936;30;20866;-56
2023/09/13 07:03:51;;;;;;;24.40;22.60;;;21.10;99.90;;;;;;4755142;30;20336;-53
2023/09/13 07:06:27;;;;;;;24.73;22.93;;;21.00;99.90;;;;;;4741689;30;20482;-53
2023/09/13 07:08:52;;;;;;;23.93;21.90;;;21.20;99.90;;;;;;4744645;30;20279;-44
2023/09/13 07:11:18;;;;;;;23.50;21.60;;;21.20;99.90;;;;;;4745884;30;20510;-46
2023/09/13 07:13:44;;;;;;;22.00;20.20;;;21.30;99.90;;;;;;4742462;30;20299;-52
2023/09/13 07:16:09;;;;;;;21.60;19.97;;;21.40;99.90;;;;;;4743199;30;20327;-55
2023/09/13 07:18:35;;;;;;;22.57;20.93;;;21.50;99.90;;;;;;4743843;30;20193;-53
2023/09/13 07:21:00;;;;;;;23.77;22.07;;;21.60;99.90;;;;;;4743964;30;20192;-43
2023/09/13 07:23:27;;;;;;;24.73;22.77;;;21.70;99.90;;;;;;4743029;30;20548;-45
2023/09/13 07:25:52;;;;;;;23.47;21.67;;;21.90;99.90;;;;;;4742016;30;21022;-47
2023/09/13 07:28:18;;;;;;;22.90;21.13;;;22.10;99.90;;;;;;4738969;30;20534;-43
2023/09/13 07:30:44;;;;;;;23.57;21.77;;;22.20;99.90;;;;;;4743528;30;20255;-46
2023/09/13 07:33:10;;;;;;;22.27;20.60;;;22.40;99.90;;;;;;4742560;30;20224;-45
2023/09/13 07:35:35;;;;;;;23.20;21.53;;;22.30;99.90;;;;;;4737148;30;20203;-43
2023/09/13 07:38:01;;;;;;;22.60;21.07;;;22.30;99.90;;;;;;4742560;30;20201;-44
2023/09/13 07:40:26;;;;;;;21.53;20.03;;;22.30;99.90;;;;;;4732810;30;20193;-44
2023/09/13 07:42:52;;;;;;;22.40;20.80;;;22.20;99.90;;;;;;4743958;30;20233;-44
2023/09/13 07:45:18;;;;;;;22.13;20.63;;;22.30;99.90;;;;;;4760657;30;20609;-46
2023/09/13 07:47:43;;;;;;;22.30;20.80;;;22.20;99.90;;;;;;4747549;30;20289;-46
2023/09/13 07:50:37;;;;;;;22.57;20.97;;;22.30;99.90;;;;;;4741354;30;20196;-45
2023/09/13 07:53:03;;;;;;;21.50;19.90;;;22.40;99.90;;;;;;4739793;30;20787;-45
2023/09/13 07:55:29;;;;;;;22.37;20.80;;;22.50;99.90;;;;;;4747317;30;20427;-47
2023/09/13 07:57:55;;;;;;;22.23;20.73;;;22.60;99.90;;;;;;4748691;30;20449;-47
2023/09/13 08:00:21;;;;;;;22.33;20.83;;;22.60;99.90;;;;;;4743781;30;20221;-42
2023/09/13 08:02:48;;;;;;;22.37;20.87;;;22.60;99.90;;;;;;4736961;30;20912;-44
2023/09/13 08:05:15;;;;;;;21.97;20.47;;;22.60;99.90;;;;;;4739454;30;20987;-44
2023/09/13 08:07:41;;;;;;;22.57;20.97;;;22.70;99.90;;;;;;4748520;30;20466;-46
2023/09/13 08:10:07;;;;;;;21.30;19.80;;;22.70;99.90;;;;;;4747712;30;20470;-48
2023/09/13 08:12:33;;;;;;;20.77;19.27;;;22.80;99.90;;;;;;4748457;30;20446;-46
2023/09/13 08:14:58;;;;;;;21.90;20.20;;;22.90;99.90;;;;;;4748833;30;20439;-46
2023/09/13 08:17:24;;;;;;;20.83;19.23;;;22.90;99.90;;;;;;4746993;30;20240;-45
2023/09/13 08:19:49;;;;;;;20.33;18.83;;;23.00;99.90;;;;;;4748740;30;20197;-46
2023/09/13 08:22:15;;;;;;;20.53;19.13;;;23.00;99.90;;;;;;4748777;30;20216;-46
2023/09/13 08:24:41;;;;;;;23.03;21.27;;;23.00;99.90;;;;;;4748317;30;20243;-48
2023/09/13 08:27:06;;;;;;;21.07;19.67;;;23.00;99.90;;;;;;4748966;30;20226;-46
2023/09/13 08:29:34;;;;;;;21.17;19.57;;;23.00;99.90;;;;;;4748713;30;20196;-44
2023/09/13 08:32:00;;;;;;;21.73;20.07;;;22.90;99.90;;;;;;4748680;30;20241;-46
2023/09/13 08:34:25;;;;;;;21.40;19.90;;;22.90;99.90;;;;;;4747756;30;20482;-45
2023/09/13 08:36:55;;;;;;;22.50;20.70;;;22.90;99.90;;;;;;4747400;30;20203;-49
2023/09/13 08:39:22;;;;;;;20.47;18.97;;;22.90;99.90;;;;;;4741949;30;20193;-48
2023/09/13 08:41:50;;;;;;;21.97;20.27;;;23.00;99.90;;;;;;4741471;30;20439;-47
2023/09/13 08:44:22;;;;;;;21.73;20.00;;;23.10;99.90;;;;;;4741716;30;20556;-46
2023/09/13 08:46:55;;;;;;;21.30;19.77;;;23.10;99.90;;;;;;4745266;30;20450;-44
2023/09/13 08:49:21;;;;;;;19.27;17.87;;;23.20;99.90;;;;;;4739967;30;20451;-44
2023/09/13 08:51:48;;;;;;;19.77;18.47;;;23.30;99.90;;;;;;4741107;30;20466;-47
2023/09/13 08:54:15;;;;;;;19.53;18.23;;;23.30;99.90;;;;;;4748212;30;20973;-44
2023/09/13 08:56:45;;;;;;;18.73;17.47;;;23.40;99.90;;;;;;4741294;30;20440;-46
2023/09/13 08:59:15;;;;;;;20.50;19.20;;;23.70;99.90;;;;;;4745817;30;20451;-45
2023/09/13 09:01:47;;;;;;;18.73;17.37;;;24.10;99.90;;;;;;4744062;30;20467;-46
2023/09/13 09:04:14;;;;;;;19.60;18.20;;;24.70;99.90;;;;;;4741035;30;20439;-43
2023/09/13 09:06:40;;;;;;;18.73;17.50;;;25.10;99.90;;;;;;4736907;30;20434;-46
2023/09/13 09:09:07;;;;;;;17.47;16.37;;;25.40;99.90;;;;;;4750076;30;20437;-46
2023/09/13 09:11:35;;;;;;;17.43;16.30;;;25.50;99.90;;;;;;4751522;30;20473;-45
2023/09/13 09:14:02;;;;;;;18.03;16.80;;;25.70;99.90;;;;;;4751281;30;20482;-48
2023/09/13 09:16:29;;;;;;;17.53;16.53;;;26.40;99.90;;;;;;4739748;30;20487;-45
2023/09/13 09:19:00;;;;;;;16.73;15.63;;;27.20;98.40;;;;;;4743102;30;20519;-45
2023/09/13 09:21:26;;;;;;;15.60;14.70;;;28.00;94.10;;;;;;4751586;30;20411;-51
2023/09/13 09:23:52;;;;;;;15.70;14.70;;;28.90;89.50;;;;;;4748499;30;20432;-45
2023/09/13 09:26:18;;;;;;;15.20;14.40;;;29.70;77.90;;;;;;4733581;30;20261;-46
2023/09/13 09:28:43;;;;;;;15.27;14.37;;;30.10;71.40;;;;;;4733913;30;20432;-48
2023/09/13 09:31:10;;;;;;;15.30;14.50;;;30.30;66.30;;;;;;4733759;30;20666;-45
2023/09/13 09:33:42;;;;;;;13.13;12.43;;;30.90;62.20;;;;;;4733779;30;20681;-45
2023/09/13 09:36:10;;;;;;;14.87;14.07;;;31.20;56.80;;;;;;4736582;30;20404;-46
2023/09/13 09:38:35;;;;;;;14.23;13.53;;;31.50;55.70;;;;;;4755458;30;20451;-46
2023/09/13 09:41:03;;;;;;;15.70;14.87;;;31.70;54.10;;;;;;4741964;30;20521;-48
2023/09/13 09:43:30;;;;;;;15.70;14.90;;;32.00;49.60;;;;;;4733589;30;20622;-45
2023/09/13 09:45:57;;;;;;;15.13;14.33;;;32.10;50.10;;;;;;4739114;30;20958;-50
2023/09/13 09:48:23;;;;;;;14.80;14.00;;;32.00;50.40;;;;;;4738788;30;20436;-46
2023/09/13 09:50:52;;;;;;;15.13;14.33;;;32.00;49.10;;;;;;4740227;30;20455;-47
2023/09/13 09:53:20;;;;;;;14.70;14.00;;;32.00;50.40;;;;;;4750748;30;20905;-46
2023/09/13 09:55:46;;;;;;;15.10;14.30;;;32.10;50.50;;;;;;4754076;30;20503;-50
2023/09/13 09:58:13;;;;;;;15.60;14.70;;;32.40;49.70;;;;;;4747878;30;20455;-48
2023/09/13 10:00:47;;;;;;;15.20;14.40;;;32.60;49.80;;;;;;4740252;30;20189;-50
2023/09/13 10:03:17;;;;;;;15.00;14.00;;;32.70;48.60;;;;;;4742891;30;20427;-47
2023/09/13 10:06:11;;;;;;;15.07;14.27;;;32.30;47.00;;;;;;4737162;30;20435;-46
2023/09/13 10:08:38;;;;;;;15.50;14.70;;;31.50;48.50;;;;;;4747597;30;20829;-49
2023/09/13 10:11:05;;;;;;;15.70;14.80;;;31.10;49.80;;;;;;4744182;30;20434;-52
2023/09/13 10:13:35;;;;;;;15.27;14.40;;;30.50;50.50;;;;;;4745508;30;20489;-48
2023/09/13 10:16:01;;;;;;;16.40;15.50;;;30.10;54.60;;;;;;4745985;30;21024;-48
2023/09/13 10:18:30;;;;;;;14.87;14.07;;;30.40;55.00;;;;;;4743210;30;20454;-45
2023/09/13 10:20:59;;;;;;;14.10;13.40;;;30.60;53.00;;;;;;4744813;30;20943;-43
2023/09/13 10:23:33;;;;;;;15.17;14.37;;;30.10;51.70;;;;;;4745001;30;20440;-48
2023/09/13 10:26:02;;;;;;;15.33;14.43;;;29.60;54.20;;;;;;4741789;30;20446;-49
2023/09/13 10:28:32;;;;;;;14.63;13.83;;;29.40;55.30;;;;;;4739010;30;20574;-47
2023/09/13 10:31:00;;;;;;;15.23;14.33;;;29.70;55.20;;;;;;4744267;30;20516;-47
2023/09/13 10:33:29;;;;;;;14.60;13.90;;;30.40;53.10;;;;;;4745769;30;20470;-46
2023/09/13 10:35:59;;;;;;;14.37;13.57;;;31.20;51.10;;;;;;4745182;30;20435;-47
2023/09/13 10:39:08;;;;;;;15.10;14.30;;;32.00;50.30;;;;;;4736312;30;20531;-43
2023/09/13 10:41:42;;;;;;;14.20;13.40;;;31.80;45.90;;;;;;4726408;30;20455;-45
2023/09/13 10:44:09;;;;;;;13.40;12.70;;;32.00;47.60;;;;;;4744308;30;20451;-52
2023/09/13 10:46:35;;;;;;;14.10;13.30;;;31.80;48.30;;;;;;4739827;30;20451;-46
2023/09/13 10:49:02;;;;;;;14.47;13.67;;;31.30;49.00;;;;;;4733823;30;20448;-46
2023/09/13 10:51:30;;;;;;;14.00;13.20;;;30.70;49.70;;;;;;4749663;30;20222;-45
2023/09/13 10:53:57;;;;;;;14.03;13.33;;;30.40;51.50;;;;;;4739403;30;20540;-47
2023/09/13 10:56:23;;;;;;;14.03;13.23;;;30.10;52.90;;;;;;4746593;30;20450;-47
2023/09/13 10:58:50;;;;;;;13.53;12.83;;;29.90;53.80;;;;;;4749728;30;20918;-48
2023/09/13 11:01:17;;;;;;;14.03;13.23;;;29.40;52.90;;;;;;4743369;30;20182;-47
2023/09/13 11:03:45;;;;;;;13.70;13.00;;;29.00;56.70;;;;;;4748674;30;20450;-46
2023/09/13 11:06:11;;;;;;;13.97;13.17;;;28.60;57.60;;;;;;4749345;30;20447;-49
2023/09/13 11:08:37;;;;;;;13.10;12.40;;;28.20;62.20;;;;;;4749679;30;20488;-45
2023/09/13 11:11:12;;;;;;;13.00;12.30;;;27.80;64.40;;;;;;4748786;30;20438;-46
2023/09/13 11:13:37;;;;;;;13.80;13.10;;;27.40;71.20;;;;;;4749649;30;20273;-46
2023/09/13 11:16:03;;;;;;;14.63;13.83;;;27.20;72.40;;;;;;4747350;30;20495;-43
2023/09/13 11:18:30;;;;;;;14.77;13.97;;;27.10;74.10;;;;;;4740802;30;20189;-47
2023/09/13 11:20:59;;;;;;;14.93;13.97;;;27.10;73.90;;;;;;4749263;30;20431;-48
2023/09/13 11:23:24;;;;;;;14.07;13.37;;;27.50;74.00;;;;;;4749704;30;20435;-49
2023/09/13 11:25:57;;;;;;;13.97;13.27;;;28.20;70.50;;;;;;4748822;30;20477;-43
2023/09/13 11:28:44;;;;;;;12.80;12.10;;;28.50;65.20;;;;;;4749112;30;20220;-45
2023/09/13 11:31:11;;;;;;;12.93;12.23;;;28.60;63.90;;;;;;4749352;30;20457;-44
2023/09/13 11:33:55;;;;;;;14.00;13.20;;;28.30;64.50;;;;;;4749243;30;20845;-45
2023/09/13 11:36:23;;;;;;;13.23;12.53;;;28.20;67.50;;;;;;4749413;30;21381;-45
2023/09/13 11:38:55;;;;;;;12.33;11.67;;;28.30;66.00;;;;;;4748652;30;20458;-47
2023/09/13 11:41:21;;;;;;;12.00;11.40;;;28.90;63.40;;;;;;4748987;30;20419;-49
2023/09/13 11:43:48;;;;;;;13.00;12.40;;;29.40;60.30;;;;;;4749140;30;20439;-46
2023/09/13 11:46:17;;;;;;;12.10;11.50;;;29.30;56.60;;;;;;4747459;30;20943;-45
2023/09/13 11:48:48;;;;;;;12.30;11.60;;;29.00;58.40;;;;;;4748819;30;20497;-49
2023/09/13 11:51:16;;;;;;;13.07;12.37;;;28.60;58.80;;;;;;4748850;30;20445;-51
2023/09/13 11:53:42;;;;;;;12.90;12.30;;;28.40;57.90;;;;;;4748177;30;20474;-49
2023/09/13 11:56:34;;;;;;;12.47;11.87;;;27.90;59.00;;;;;;4749801;30;20430;-44
2023/09/13 11:59:00;;;;;;;13.43;12.73;;;27.30;61.10;;;;;;4748926;30;20435;-57
2023/09/13 12:01:26;;;;;;;11.70;11.10;;;26.50;67.70;;;;;;4748280;30;20454;-56
2023/09/13 12:03:52;;;;;;;12.80;12.20;;;26.40;69.70;;;;;;4741628;30;20450;-58
2023/09/13 12:06:19;;;;;;;12.30;11.70;;;26.30;72.40;;;;;;4740996;30;20208;-58
2023/09/13 12:08:46;;;;;;;12.00;11.40;;;26.10;73.70;;;;;;4747744;30;20525;-58
2023/09/13 12:11:12;;;;;;;12.40;11.70;;;26.10;74.80;;;;;;4748898;30;21035;-58
2023/09/13 12:13:42;;;;;;;11.50;11.00;;;26.20;75.30;;;;;;4748686;30;20565;-51
2023/09/13 12:16:08;;;;;;;10.90;10.40;;;26.20;75.60;;;;;;4748044;30;20235;-56
2023/09/13 12:18:34;;;;;;;10.67;10.07;;;26.10;77.10;;;;;;4745778;30;20431;-58
2023/09/13 12:21:00;;;;;;;11.50;11.00;;;26.20;76.30;;;;;;4748832;30;20353;-59
2023/09/13 12:23:26;;;;;;;11.43;10.93;;;26.20;75.80;;;;;;4743139;30;20431;-59
2023/09/13 12:25:56;;;;;;;11.47;10.97;;;26.10;78.10;;;;;;4747698;30;20196;-56
2023/09/13 12:28:34;;;;;;;12.50;11.90;;;25.90;76.70;;;;;;4744539;30;20247;-56